createdAt,value
2022-12-29T00:01:19.169Z,97753.91
2022-12-29T00:03:49.658Z,97755.44
2022-12-29T00:06:18.010Z,97745.59
2022-12-29T00:08:46.470Z,97749.75
2022-12-29T00:11:17.482Z,97755.09
2022-12-29T00:14:03.453Z,97756.53
2022-12-29T00:16:33.368Z,97752.19
2022-12-29T00:19:04.306Z,97752.31
2022-12-29T00:21:50.401Z,97755.16
2022-12-29T00:24:38.727Z,97756.59
2022-12-29T00:27:31.960Z,97757.59
2022-12-29T00:30:18.137Z,97753.19
2022-12-29T00:33:03.671Z,97754.72
2022-12-29T00:35:37.272Z,97743.41
2022-12-29T00:38:25.697Z,97739.69
2022-12-29T00:41:11.173Z,97749.56
2022-12-29T00:43:57.333Z,97745.06
2022-12-29T00:46:25.925Z,97740.00
2022-12-29T00:49:11.960Z,97739.28
2022-12-29T00:51:41.848Z,97738.03
2022-12-29T00:54:10.492Z,97735.03
2022-12-29T00:56:39.154Z,97735.19
2022-12-29T00:59:08.706Z,97729.31
2022-12-29T01:01:38.071Z,97727.66
2022-12-29T01:04:06.738Z,97733.13
2022-12-29T01:06:36.629Z,97741.19
2022-12-29T01:09:23.946Z,97746.66
2022-12-29T01:11:53.218Z,97744.03
2022-12-29T01:14:22.416Z,97746.06
2022-12-29T01:16:51.097Z,97738.06
2022-12-29T01:19:20.317Z,97740.31
2022-12-29T01:21:49.301Z,97744.19
2022-12-29T01:24:20.185Z,97747.44
2022-12-29T01:26:49.634Z,97736.50
2022-12-29T01:29:18.742Z,97737.72
2022-12-29T01:31:50.903Z,97737.94
2022-12-29T01:34:19.505Z,97739.13
2022-12-29T01:36:47.813Z,97751.41
2022-12-29T01:39:16.849Z,97744.19
2022-12-29T01:41:47.123Z,97746.88
2022-12-29T01:45:00.125Z,97735.72
2022-12-29T01:47:33.055Z,97734.25
2022-12-29T01:50:05.646Z,97727.41
2022-12-29T01:52:36.207Z,97718.66
2022-12-29T01:55:05.111Z,97719.38
2022-12-29T01:57:38.730Z,97712.94
2022-12-29T02:00:09.535Z,97717.00
2022-12-29T02:02:45.944Z,97718.25
2022-12-29T02:05:18.629Z,97717.63
2022-12-29T02:07:47.341Z,97723.97
2022-12-29T02:10:15.942Z,97709.66
2022-12-29T02:12:45.716Z,97710.22
2022-12-29T02:15:14.091Z,97699.94
2022-12-29T02:17:55.926Z,97700.66
2022-12-29T02:21:05.884Z,97697.56
2022-12-29T02:24:00.670Z,97700.09
2022-12-29T02:26:50.310Z,97681.13
2022-12-29T02:29:36.617Z,97678.25
2022-12-29T02:32:08.509Z,97687.03
2022-12-29T02:34:44.691Z,97698.41
2022-12-29T02:37:18.324Z,97683.84
2022-12-29T02:39:53.019Z,97676.13
2022-12-29T02:42:26.005Z,97679.84
2022-12-29T02:44:59.109Z,97675.00
2022-12-29T02:47:33.794Z,97672.25
2022-12-29T02:50:06.322Z,97672.09
2022-12-29T02:52:39.241Z,97669.19
2022-12-29T02:55:08.055Z,97672.25
2022-12-29T02:57:37.308Z,97670.50
2022-12-29T03:00:09.687Z,97678.50
2022-12-29T03:03:07.645Z,97673.13
2022-12-29T03:05:55.608Z,97679.03
2022-12-29T03:08:31.030Z,97672.03
2022-12-29T03:11:03.507Z,97678.41
2022-12-29T03:13:55.909Z,97670.59
2022-12-29T03:16:27.819Z,97673.25
2022-12-29T03:19:02.243Z,97664.75
2022-12-29T03:21:54.047Z,97660.78
2022-12-29T03:24:27.871Z,97665.38
2022-12-29T03:27:01.270Z,97661.34
2022-12-29T03:29:36.109Z,97663.06
2022-12-29T03:32:06.046Z,97659.22
2022-12-29T03:34:35.686Z,97655.59
2022-12-29T03:37:08.690Z,97661.03
2022-12-29T03:39:37.553Z,97658.81
2022-12-29T03:42:08.517Z,97659.41
2022-12-29T03:44:40.232Z,97656.44
2022-12-29T03:47:10.313Z,97658.09
2022-12-29T03:49:38.784Z,97666.72
2022-12-29T03:52:09.412Z,97655.13
2022-12-29T03:54:43.734Z,97673.69
2022-12-29T03:57:12.783Z,97676.75
2022-12-29T03:59:52.171Z,97672.56
2022-12-29T04:02:20.809Z,97672.31
2022-12-29T04:04:49.302Z,97673.56
2022-12-29T04:07:19.073Z,97671.75
2022-12-29T04:09:47.385Z,97668.63
2022-12-29T04:12:21.416Z,97661.03
2022-12-29T04:14:49.771Z,97663.63
2022-12-29T04:17:19.122Z,97656.13
2022-12-29T04:19:50.856Z,97667.41
2022-12-29T04:22:21.051Z,97664.81
2022-12-29T04:24:49.380Z,97664.19
2022-12-29T04:27:17.687Z,97659.47
2022-12-29T04:30:04.486Z,97649.16
2022-12-29T04:32:45.039Z,97660.38
2022-12-29T04:35:13.400Z,97655.44
2022-12-29T04:37:43.105Z,97656.28
2022-12-29T04:40:13.875Z,97655.81
2022-12-29T04:42:42.170Z,97667.91
2022-12-29T04:45:11.342Z,97662.31
2022-12-29T04:47:53.032Z,97662.91
2022-12-29T04:50:50.177Z,97666.41
2022-12-29T04:53:26.397Z,97665.94
2022-12-29T04:55:56.143Z,97668.97
2022-12-29T04:58:24.614Z,97666.84
2022-12-29T05:00:54.227Z,97657.97
2022-12-29T05:03:26.987Z,97658.53
2022-12-29T05:05:57.190Z,97667.94
2022-12-29T05:08:28.597Z,97659.22
2022-12-29T05:10:59.722Z,97650.09
2022-12-29T05:13:28.715Z,97654.28
2022-12-29T05:15:57.141Z,97659.47
2022-12-29T05:18:26.342Z,97660.53
2022-12-29T05:20:54.604Z,97664.00
2022-12-29T05:23:26.329Z,97666.31
2022-12-29T05:26:01.812Z,97667.25
2022-12-29T05:28:48.428Z,97678.34
2022-12-29T05:31:20.639Z,97673.50
2022-12-29T05:33:50.130Z,97674.09
2022-12-29T05:36:19.141Z,97673.28
2022-12-29T05:38:52.928Z,97678.09
2022-12-29T05:41:21.570Z,97676.03
2022-12-29T05:44:02.692Z,97676.97
2022-12-29T05:46:49.502Z,97678.88
2022-12-29T05:49:22.544Z,97670.09
2022-12-29T05:52:26.033Z,97672.25
2022-12-29T05:54:56.200Z,97670.31
2022-12-29T05:57:26.068Z,97676.22
2022-12-29T06:00:15.722Z,97675.94
2022-12-29T06:02:48.115Z,97681.97
2022-12-29T06:05:18.453Z,97680.56
2022-12-29T06:07:46.973Z,97685.63
2022-12-29T06:10:19.386Z,97690.50
2022-12-29T06:12:53.196Z,97686.06
2022-12-29T06:15:21.699Z,97687.41
2022-12-29T06:17:52.100Z,97696.25
2022-12-29T06:20:20.524Z,97692.00
2022-12-29T06:22:50.411Z,97690.94
2022-12-29T06:25:21.694Z,97690.88
2022-12-29T06:27:50.140Z,97693.47
2022-12-29T06:30:19.076Z,97688.69
2022-12-29T06:32:47.950Z,97687.34
2022-12-29T06:35:16.546Z,97694.56
2022-12-29T06:37:51.720Z,97701.78
2022-12-29T06:40:22.702Z,97697.91
2022-12-29T06:43:20.135Z,97698.88
2022-12-29T06:46:09.872Z,97690.50
2022-12-29T06:48:38.263Z,97695.41
2022-12-29T06:51:06.949Z,97696.97
2022-12-29T06:53:35.292Z,97707.31
2022-12-29T06:56:05.482Z,97714.22
2022-12-29T06:58:34.030Z,97709.75
2022-12-29T07:01:03.553Z,97706.38
2022-12-29T07:03:32.167Z,97713.72
2022-12-29T07:06:01.017Z,97713.13
2022-12-29T07:08:29.654Z,97704.13
2022-12-29T07:10:57.984Z,97713.00
2022-12-29T07:13:27.884Z,97714.88
2022-12-29T07:15:56.373Z,97719.25
2022-12-29T07:18:25.129Z,97727.88
2022-12-29T07:20:53.447Z,97728.03
2022-12-29T07:23:21.816Z,97719.22
2022-12-29T07:25:50.141Z,97729.63
2022-12-29T07:28:18.426Z,97725.22
2022-12-29T07:30:49.811Z,97720.47
2022-12-29T07:33:19.956Z,97721.03
2022-12-29T07:35:49.099Z,97720.72
2022-12-29T07:38:17.754Z,97729.22
2022-12-29T07:40:46.132Z,97727.53
2022-12-29T07:43:14.575Z,97725.72
2022-12-29T07:45:53.879Z,97721.22
2022-12-29T07:48:25.447Z,97728.63
2022-12-29T07:50:54.431Z,97730.00
2022-12-29T07:53:23.021Z,97729.59
2022-12-29T07:55:51.322Z,97732.63
2022-12-29T07:58:20.048Z,97730.53
2022-12-29T08:00:48.682Z,97721.47
2022-12-29T08:03:19.039Z,97724.03
2022-12-29T08:05:47.447Z,97732.31
2022-12-29T08:08:15.929Z,97732.75
2022-12-29T08:10:45.608Z,97723.69
2022-12-29T08:13:14.495Z,97725.00
2022-12-29T08:15:42.842Z,97718.41
2022-12-29T08:18:11.292Z,97718.75
2022-12-29T08:20:41.037Z,97730.66
2022-12-29T08:23:09.387Z,97713.84
2022-12-29T08:25:37.779Z,97713.78
2022-12-29T08:28:06.231Z,97718.66
2022-12-29T08:30:35.348Z,97715.63
2022-12-29T08:33:03.694Z,97716.69
2022-12-29T08:35:32.175Z,97706.03
2022-12-29T08:38:01.866Z,97715.13
2022-12-29T08:40:30.324Z,97714.47
2022-12-29T08:42:58.703Z,97708.91
2022-12-29T08:45:27.543Z,97701.28
2022-12-29T08:47:57.088Z,97702.63
2022-12-29T08:50:25.732Z,97694.09
2022-12-29T08:52:55.407Z,97700.31
2022-12-29T08:55:25.804Z,97691.53
2022-12-29T08:57:55.259Z,97685.19
2022-12-29T09:00:23.942Z,97694.81
2022-12-29T09:02:53.328Z,97699.38
2022-12-29T09:05:21.755Z,97702.44
2022-12-29T09:07:53.386Z,97698.16
2022-12-29T09:10:21.759Z,97692.03
2022-12-29T09:12:52.795Z,97699.59
2022-12-29T09:15:21.332Z,97691.69
2022-12-29T09:17:49.656Z,97688.72
2022-12-29T09:20:19.752Z,97685.44
2022-12-29T09:22:49.483Z,97679.44
2022-12-29T09:25:18.448Z,97687.88
2022-12-29T09:27:46.800Z,97682.75
2022-12-29T09:30:17.625Z,97672.88
2022-12-29T09:32:47.780Z,97660.38
2022-12-29T09:35:19.181Z,97669.41
2022-12-29T09:37:47.676Z,97668.81
2022-12-29T09:40:30.286Z,97660.19
2022-12-29T09:43:26.947Z,97660.78
2022-12-29T09:46:02.412Z,97653.97
2022-12-29T09:48:33.668Z,97646.91
2022-12-29T09:51:06.259Z,97642.16
2022-12-29T09:53:39.482Z,97639.06
2022-12-29T09:56:15.564Z,97637.03
2022-12-29T09:58:49.912Z,97631.06
2022-12-29T10:01:28.940Z,97629.69
2022-12-29T10:03:58.983Z,97620.00
2022-12-29T10:06:32.938Z,97612.69
2022-12-29T10:09:05.364Z,97618.16
2022-12-29T10:11:52.496Z,97611.13
2022-12-29T10:14:33.476Z,97608.00
2022-12-29T10:17:08.270Z,97602.97
2022-12-29T10:19:55.283Z,97601.41
2022-12-29T10:22:32.016Z,97596.91
2022-12-29T10:25:03.759Z,97597.88
2022-12-29T10:27:33.899Z,97586.91
2022-12-29T10:30:04.827Z,97590.28
2022-12-29T10:32:38.230Z,97583.66
2022-12-29T10:35:13.303Z,97582.03
2022-12-29T10:37:46.221Z,97586.19
2022-12-29T10:40:21.652Z,97588.78
2022-12-29T10:42:54.639Z,97582.72
2022-12-29T10:45:24.445Z,97579.44
2022-12-29T10:47:58.635Z,97574.19
2022-12-29T10:50:28.054Z,97585.31
2022-12-29T10:52:57.708Z,97592.09
2022-12-29T10:55:29.874Z,97588.41
2022-12-29T10:58:00.200Z,97580.19
2022-12-29T11:00:30.312Z,97582.72
2022-12-29T11:03:39.148Z,97583.69
2022-12-29T11:06:11.473Z,97577.72
2022-12-29T11:08:42.202Z,97577.75
2022-12-29T11:11:11.927Z,97577.78
2022-12-29T11:13:50.122Z,97574.31
2022-12-29T11:16:29.747Z,97567.44
2022-12-29T11:19:00.346Z,97564.00
2022-12-29T11:21:34.025Z,97566.47
2022-12-29T11:24:04.292Z,97559.25
2022-12-29T11:26:35.010Z,97563.56
2022-12-29T11:29:19.279Z,97563.69
2022-12-29T11:31:49.306Z,97552.31
2022-12-29T11:34:24.602Z,97550.34
2022-12-29T11:36:55.946Z,97548.69
2022-12-29T11:39:30.682Z,97555.38
2022-12-29T11:41:59.580Z,97551.94
2022-12-29T11:44:29.970Z,97545.75
2022-12-29T11:46:58.523Z,97540.50
2022-12-29T11:49:28.700Z,97553.41
2022-12-29T11:51:58.572Z,97547.66
2022-12-29T11:54:31.341Z,97545.03
2022-12-29T11:57:01.469Z,97546.88
2022-12-29T11:59:45.567Z,97547.63
2022-12-29T12:02:47.182Z,97531.78
2022-12-29T12:05:23.051Z,97526.31
2022-12-29T12:07:55.995Z,97527.63
2022-12-29T12:10:29.555Z,97527.72
2022-12-29T12:13:06.279Z,97526.69
2022-12-29T12:15:45.361Z,97517.59
2022-12-29T12:18:21.572Z,97525.81
2022-12-29T12:20:54.775Z,97514.69
2022-12-29T12:23:39.272Z,97513.16
2022-12-29T12:26:13.815Z,97505.19
2022-12-29T12:28:48.482Z,97505.94
2022-12-29T12:31:24.150Z,97505.41
2022-12-29T12:33:57.334Z,97497.88
2022-12-29T12:36:46.006Z,97494.47
2022-12-29T12:39:20.519Z,97496.50
2022-12-29T12:41:54.663Z,97490.28
2022-12-29T12:44:30.250Z,97492.19
2022-12-29T12:47:24.588Z,97495.59
2022-12-29T12:50:17.043Z,97495.09
2022-12-29T12:53:00.399Z,97508.22
2022-12-29T12:55:41.833Z,97499.75
2022-12-29T12:58:16.589Z,97496.44
2022-12-29T13:00:53.607Z,97504.22
2022-12-29T13:03:29.805Z,97503.44
2022-12-29T13:06:09.761Z,97500.19
2022-12-29T13:09:13.957Z,97500.22
2022-12-29T13:11:53.468Z,97500.19
2022-12-29T13:14:31.133Z,97503.72
2022-12-29T13:17:03.682Z,97506.34
2022-12-29T13:19:35.578Z,97504.63
2022-12-29T13:22:09.307Z,97502.03
2022-12-29T13:24:49.614Z,97502.03
2022-12-29T13:27:27.831Z,97509.81
2022-12-29T13:30:04.689Z,97507.19
2022-12-29T13:32:52.064Z,97510.66
2022-12-29T13:35:38.256Z,97509.78
2022-12-29T13:38:12.845Z,97514.06
2022-12-29T13:40:43.302Z,97507.22
2022-12-29T13:43:44.300Z,97514.94
2022-12-29T13:47:10.567Z,97519.22
2022-12-29T13:50:25.728Z,97519.16
2022-12-29T13:53:11.392Z,97508.81
2022-12-29T13:56:01.620Z,97507.09
2022-12-29T13:58:38.999Z,97514.84
2022-12-29T14:01:16.977Z,97512.22
2022-12-29T14:03:57.546Z,97513.03
2022-12-29T14:06:42.451Z,97509.56
2022-12-29T14:09:40.353Z,97516.41
2022-12-29T14:16:40.566Z,97508.59
2022-12-29T14:19:44.743Z,97506.91
2022-12-29T14:23:00.821Z,97509.41
2022-12-29T14:26:07.885Z,97511.88
2022-12-29T14:28:39.626Z,97502.38
2022-12-29T14:31:36.099Z,97505.81
2022-12-29T14:34:33.085Z,97505.88
2022-12-29T14:37:02.908Z,97507.56
2022-12-29T14:39:35.113Z,97510.03
2022-12-29T14:42:05.050Z,97515.16
2022-12-29T14:44:33.894Z,97519.38
2022-12-29T14:47:07.878Z,97518.47
2022-12-29T14:49:44.361Z,97521.84
2022-12-29T14:52:19.569Z,97521.72
2022-12-29T14:54:56.108Z,97519.94
2022-12-29T14:57:29.437Z,97512.13
2022-12-29T15:00:01.751Z,97526.53
2022-12-29T15:02:38.326Z,97519.59
2022-12-29T15:05:08.072Z,97529.81
2022-12-29T15:07:36.799Z,97522.88
2022-12-29T15:10:08.729Z,97524.50
2022-12-29T15:12:43.825Z,97522.72
2022-12-29T15:15:24.264Z,97520.88
2022-12-29T15:17:54.461Z,97529.34
2022-12-29T15:20:28.106Z,97532.59
2022-12-29T15:23:03.535Z,97538.44
2022-12-29T15:25:33.561Z,97537.44
2022-12-29T15:28:03.600Z,97537.25
2022-12-29T15:30:32.279Z,97544.94
2022-12-29T15:33:08.020Z,97545.53
2022-12-29T15:35:37.907Z,97542.69
2022-12-29T15:38:16.979Z,97549.75
2022-12-29T15:40:46.280Z,97546.53
2022-12-29T15:43:41.956Z,97544.72
2022-12-29T15:46:13.939Z,97541.91
2022-12-29T15:48:44.894Z,97535.50
2022-12-29T15:51:22.021Z,97534.22
2022-12-29T15:53:51.848Z,97533.31
2022-12-29T15:56:20.823Z,97528.84
2022-12-29T15:58:52.222Z,97536.97
2022-12-29T16:01:22.217Z,97536.38
2022-12-29T16:03:53.107Z,97539.72
2022-12-29T16:06:29.885Z,97529.31
2022-12-29T16:08:59.473Z,97543.56
2022-12-29T16:11:33.125Z,97545.91
2022-12-29T16:14:01.823Z,97544.50
2022-12-29T16:16:32.568Z,97553.47
2022-12-29T16:19:04.683Z,97554.03
2022-12-29T16:21:35.974Z,97550.38
2022-12-29T16:24:07.975Z,97556.19
2022-12-29T16:26:36.392Z,97563.69
2022-12-29T16:29:08.766Z,97567.22
2022-12-29T16:31:38.640Z,97569.47
2022-12-29T16:34:24.088Z,97566.72
2022-12-29T16:36:58.401Z,97568.41
2022-12-29T16:39:30.154Z,97566.59
2022-12-29T16:42:00.861Z,97572.88
2022-12-29T16:44:30.784Z,97577.78
2022-12-29T16:47:20.866Z,97572.59
2022-12-29T16:49:54.165Z,97575.34
2022-12-29T16:52:26.989Z,97578.50
2022-12-29T16:54:57.485Z,97571.19
2022-12-29T16:57:31.499Z,97573.75
2022-12-29T17:00:02.102Z,97567.34
2022-12-29T17:02:33.111Z,97565.28
2022-12-29T17:05:05.280Z,97573.97
2022-12-29T17:07:33.751Z,97577.00
2022-12-29T17:10:02.228Z,97560.06
2022-12-29T17:12:32.159Z,97557.56
2022-12-29T17:15:02.056Z,97556.78
2022-12-29T17:17:35.824Z,97557.19
2022-12-29T17:20:08.482Z,97552.59
2022-12-29T17:22:37.392Z,97549.88
2022-12-29T17:25:06.583Z,97545.66
2022-12-29T17:27:38.653Z,97545.53
2022-12-29T17:30:12.350Z,97553.59
2022-12-29T17:32:41.939Z,97550.66
2022-12-29T17:35:17.106Z,97555.47
2022-12-29T17:37:45.893Z,97550.78
2022-12-29T17:40:16.502Z,97551.03
2022-12-29T17:42:47.316Z,97542.56
2022-12-29T17:45:18.116Z,97546.66
2022-12-29T17:47:46.501Z,97546.66
2022-12-29T17:50:17.919Z,97545.91
2022-12-29T17:52:49.251Z,97550.09
2022-12-29T17:55:19.734Z,97551.59
2022-12-29T17:57:48.407Z,97555.13
2022-12-29T18:00:18.826Z,97558.94
2022-12-29T18:02:50.225Z,97562.47
2022-12-29T18:05:22.563Z,97557.78
2022-12-29T18:07:53.572Z,97561.47
2022-12-29T18:10:22.993Z,97560.38
2022-12-29T18:12:53.069Z,97562.88
2022-12-29T18:15:29.685Z,97567.47
2022-12-29T18:18:04.096Z,97564.66
2022-12-29T18:20:36.740Z,97566.41
2022-12-29T18:23:08.623Z,97572.41
2022-12-29T18:25:41.813Z,97573.78
2022-12-29T18:28:10.452Z,97581.78
2022-12-29T18:30:39.495Z,97567.09
2022-12-29T18:33:08.493Z,97568.69
2022-12-29T18:35:43.642Z,97561.47
2022-12-29T18:38:13.703Z,97566.19
2022-12-29T18:40:43.224Z,97572.59
2022-12-29T18:43:12.684Z,97565.88
2022-12-29T18:45:41.306Z,97562.81
2022-12-29T18:48:16.641Z,97565.22
2022-12-29T18:50:49.231Z,97558.66
2022-12-29T18:53:18.692Z,97554.88
2022-12-29T18:55:47.727Z,97550.97
2022-12-29T18:58:16.681Z,97542.63
2022-12-29T19:00:45.703Z,97544.16
2022-12-29T19:03:15.846Z,97536.13
2022-12-29T19:05:48.924Z,97540.09
2022-12-29T19:08:17.749Z,97536.34
2022-12-29T19:10:46.877Z,97536.91
2022-12-29T19:13:18.440Z,97538.91
2022-12-29T19:15:47.785Z,97530.41
2022-12-29T19:21:11.090Z,97540.09
2022-12-29T19:23:39.900Z,97539.44
2022-12-29T19:26:11.000Z,97535.19
2022-12-29T19:28:40.865Z,97534.97
2022-12-29T19:31:10.748Z,97539.66
2022-12-29T19:33:40.299Z,97535.78
2022-12-29T19:36:17.070Z,97533.00
2022-12-29T19:38:46.316Z,97536.03
2022-12-29T19:41:15.545Z,97534.25
2022-12-29T19:43:45.175Z,97532.84
2022-12-29T19:46:17.606Z,97525.00
2022-12-29T19:48:46.535Z,97529.78
2022-12-29T19:51:18.485Z,97525.19
2022-12-29T19:53:47.778Z,97521.47
2022-12-29T19:56:16.760Z,97521.50
2022-12-29T19:58:47.784Z,97510.66
2022-12-29T20:01:18.425Z,97509.59
2022-12-29T20:03:48.945Z,97512.03
2022-12-29T20:06:19.262Z,97510.91
2022-12-29T20:08:48.444Z,97508.63
2022-12-29T20:11:19.419Z,97511.13
2022-12-29T20:13:48.421Z,97516.63
2022-12-29T20:16:22.537Z,97525.28
2022-12-29T20:18:51.884Z,97533.66
2022-12-29T20:21:23.432Z,97540.03
2022-12-29T20:23:52.962Z,97541.25
2022-12-29T20:26:23.729Z,97535.91
2022-12-29T20:28:52.805Z,97540.63
2022-12-29T20:31:25.755Z,97547.22
2022-12-29T20:33:54.459Z,97557.50
2022-12-29T20:36:26.405Z,97555.34
2022-12-29T20:38:55.547Z,97550.00
2022-12-29T20:41:24.161Z,97543.59
2022-12-29T20:43:53.293Z,97552.56
2022-12-29T20:46:26.409Z,97549.72
2022-12-29T20:48:59.910Z,97543.50
2022-12-29T20:51:59.295Z,97546.00
2022-12-29T20:54:20.010Z,97542.72
2022-12-29T20:56:48.968Z,97542.00
2022-12-29T20:59:27.454Z,97539.66
2022-12-29T21:01:57.532Z,97533.94
2022-12-29T21:04:26.540Z,97528.81
2022-12-29T21:06:56.614Z,97536.22
2022-12-29T21:09:25.107Z,97527.19
2022-12-29T21:11:53.825Z,97521.50
2022-12-29T21:14:22.847Z,97517.88
2022-12-29T21:16:51.402Z,97510.50
2022-12-29T21:19:19.737Z,97504.19
2022-12-29T21:21:48.028Z,97492.41
2022-12-29T21:24:19.927Z,97484.19
2022-12-29T21:26:48.750Z,97485.25
2022-12-29T21:29:18.123Z,97476.41
2022-12-29T21:31:49.108Z,97471.00
2022-12-29T21:34:17.842Z,97472.31
2022-12-29T21:36:46.301Z,97469.72
2022-12-29T21:39:16.483Z,97466.53
2022-12-29T21:41:47.671Z,97469.19
2022-12-29T21:44:33.745Z,97468.75
2022-12-29T21:47:02.365Z,97467.97
2022-12-29T21:49:30.710Z,97458.97
2022-12-29T21:51:59.288Z,97457.25
2022-12-29T21:54:46.241Z,97460.28
2022-12-29T21:57:38.116Z,97454.47
2022-12-29T22:00:26.143Z,97450.94
2022-12-29T22:03:20.063Z,97446.16
2022-12-29T22:06:08.376Z,97441.97
2022-12-29T22:08:54.010Z,97444.56
2022-12-29T22:11:40.006Z,97438.03
2022-12-29T22:14:09.811Z,97451.19
2022-12-29T22:16:38.408Z,97455.94
2022-12-29T22:19:07.983Z,97454.34
2022-12-29T22:21:36.427Z,97456.50
2022-12-29T22:24:04.832Z,97450.88
2022-12-29T22:26:33.241Z,97448.84
2022-12-29T22:29:04.020Z,97446.13
2022-12-29T22:31:33.999Z,97458.69
2022-12-29T22:34:03.922Z,97459.13
2022-12-29T22:36:33.548Z,97468.03
2022-12-29T22:39:02.130Z,97464.63
2022-12-29T22:41:30.433Z,97462.44
2022-12-29T22:43:58.722Z,97476.44
2022-12-29T22:46:27.144Z,97490.13
2022-12-29T22:48:57.849Z,97500.63
2022-12-29T22:51:26.416Z,97516.94
2022-12-29T22:53:54.934Z,97511.16
2022-12-29T22:56:23.263Z,97511.72
2022-12-29T22:58:51.634Z,97514.66
2022-12-29T23:01:22.714Z,97515.72
2022-12-29T23:03:51.416Z,97512.19
2022-12-29T23:06:21.347Z,97520.31
2022-12-29T23:08:49.751Z,97511.91
2022-12-29T23:11:18.235Z,97508.31
2022-12-29T23:13:46.999Z,97518.97
2022-12-29T23:16:16.481Z,97510.19
2022-12-29T23:18:45.168Z,97502.47
2022-12-29T23:21:13.737Z,97503.53
2022-12-29T23:23:56.248Z,97502.47
2022-12-29T23:26:28.424Z,97495.31
2022-12-29T23:29:00.326Z,97499.97
2022-12-29T23:31:29.422Z,97503.09
2022-12-29T23:33:58.086Z,97491.09
2022-12-29T23:36:26.447Z,97500.28
2022-12-29T23:38:57.063Z,97487.31
2022-12-29T23:41:25.699Z,97480.69
2022-12-29T23:43:54.039Z,97472.44
2022-12-29T23:46:23.987Z,97468.72
2022-12-29T23:48:52.541Z,97475.00
2022-12-29T23:51:20.999Z,97472.69
2022-12-29T23:53:49.628Z,97472.53
2022-12-29T23:56:21.682Z,97452.38
2022-12-29T23:58:50.547Z,97468.50
